AirNav   Duncan Aviation - Near you to keep you flying
 
 1370 users online  

4F7 Kizer Field Airport
Prescott, Arkansas, USA

GOING TO PRESCOTT?


FAA INFORMATION EFFECTIVE 26 JANUARY 2023

Location

FAA Identifier: 4F7
Lat/Long: 33-48-14.0000N 093-21-43.8000W
33-48.233333N 093-21.730000W
33.8038889,-93.3621667
(estimated)
Elevation: 318.8 ft. / 97.2 m (surveyed)
Variation: 03E (2005)
From city: 1 mile E of PRESCOTT, AR
Time zone: UTC -6 (UTC -5 during Daylight Saving Time)
Zip code: 71857

Airport Operations

Airport use: Open to the public
Activation date: 09/1967
Control tower: no
ARTCC: FORT WORTH CENTER
FSS: JONESBORO FLIGHT SERVICE STATION
NOTAMs facility: JBR (NOTAM-D service available)
Attendance: UNATNDD
Wind indicator: lighted
Segmented circle: yes
Beacon: white-green (lighted land airport)
Operates sunset to sunrise.

Airport Communications

CTAF: 122.9

Nearby radio navigation aids

VOR radial/distance  VOR name  Freq  Var
TXKr057/39.5TEXARKANA VORTAC116.3007E

 
NDB name  Hdg/Dist  Freq  Var  ID
HOPE067/15.336203EHPC .... .--. -.-.

Airport Services

Parking: tiedowns
Airframe service: NONE
Powerplant service: NONE
Bottled oxygen: NONE
Bulk oxygen: NONE

Runway Information

Runway 18/36

Dimensions: 3464 x 50 ft. / 1056 x 15 m
Surface: asphalt, in good condition
Weight bearing capacity: 
Single wheel: 12.0
Runway edge lights: medium intensity
RUNWAY 18  RUNWAY 36
Latitude: 33-48.518000N33-47.947000N
Longitude: 093-21.721833W093-21.739000W
Elevation: 318.8 ft.308.1 ft.
Traffic pattern: leftleft
Runway heading: 179 magnetic, 182 true359 magnetic, 002 true
Markings: basic, in good conditionbasic, in good condition
Touchdown point: yes, no lightsyes, no lights
Obstructions: 3 ft. road, 260 ft. from runway, 20:1 slope to clear42 ft. trees, 375 ft. from runway, 250 ft. left of centerline, 4:1 slope to clear

Airport Ownership and Management from official FAA records

Ownership: Publicly-owned
Owner: CITY OF PRESCOTT
421 EAST MAIN ST
PRESCOTT, AR 71857
Phone 870-887-2210
Manager: TERRY OLIVER
421 EAST MAIN STR.
PRESCOTT, AR 71857
Phone 870-887-2210
MAYOR OF PRESCOTT.

Airport Operational Statistics

Aircraft based on the field: 3
Single engine airplanes: 3
    
Aircraft operations: avg 48/week *
80% transient general aviation
20% local general aviation
* for 12-month period ending 31 March 2021

Additional Remarks

ARPT GATE LOCKED FM 2100-0500; CALL POLICE FOR ACCESS 870-887-2676.
RY 36 APCH - GROUND SLOPE DOWNWARD 6 FT IN 100 FT; 100 FT FROM RY END.
FOR CD CTC FORT WORTH ARTCC AT 817-858-7584.

Instrument Procedures

There are no published instrument procedures at 4F7.

Some nearby airports with instrument procedures:

M18 - Hope Municipal Airport (16 nm W)
KADF - Dexter B Florence Memorial Field Airport (23 nm NE)
M77 - Howard County Airport (26 nm NW)
KCDH - Harrell Field Airport (32 nm E)
KAGO - Ralph C Weiser Field Airport (35 nm S)
 
Loc | Ops | Rwys | IFR | FBO | Links
Com | Nav | Svcs | Stats | Notes
Area around 4F7 (Kizer Field Airport)
 
Road maps at: MapQuest Bing Google
 
Aerial photo
WARNING: Photo may not be current or correct
Aerial photo of 4F7 (Kizer Field Airport)
Photo courtesy of the Arkansas Department of Aeronautics
Taken in the Spring of 2007

Do you have a better or more recent aerial photo of Kizer Field Airport that you would like to share? If so, please send us your photo.

 
Sectional chart

 
Airport distance calculator
Flying to Kizer Field Airport? Find the distance to fly.

From to 4F7

Sunrise and sunset
Times for 01-Feb-2023
 Local
(UTC-6)
 Zulu
(UTC)
Morning civil twilight06:4512:45
Sunrise07:1113:11
Sunset17:4323:43
Evening civil twilight18:0900:09

Current date and time
Zulu (UTC)  01-Feb-2023 22:41:22
Local (UTC-6)  01-Feb-2023 16:41:22
 
METAR
KADF 
23nm NE 
012152Z AUTO 02007KT 10SM UP BKN009 BKN060 OVC100 M01/M02 A3035 RMK AO2 CIG 009V015 SLP279 P0000 T10061017 FZRANO
KCDH 
32nm E 
012215Z AUTO 00000KT 7SM OVC006 M01/M01 A3032 RMK AO2
KAGO 
35nm S 
012155Z AUTO VRB05G10KT 8SM OVC005 00/M00 A3028 RMK A01
KTXK 
38nm SW 
012153Z 04006KT 9SM UP OVC005 02/M01 A3030 RMK AO2 RAB33E41UPB52 SLP260 P0000 T00171011
KHOT 
43nm N 
012153Z AUTO 03005KT 9SM OVC013 M01/M03 A3032 RMK AO2 PRESFR SLP270 T10061028
KELD 
45nm SE 
012153Z AUTO 02006KT 10SM UP OVC005 00/M01 A3030 RMK AO2 SLP264 P0003 T00001006
KMWT 
46nm N 
012223Z AUTO 00000KT 10SM BKN011 OVC100 00/M03 A3027 RMK AO2 T00001033
TAF
KADF 
23nm NE 
011958Z 0120/0218 02008KT P6SM BKN030 FM012200 VRB05KT 5SM -FZRA BR OVC007 FM020500 VRB04KT 5SM -FZRA BR OVC005 FM021600 04004KT 6SM -RA BR OVC005
NOTAMs
Click for the latest NOTAMs
NOTAMs are issued by the DoD/FAA and will open in a separate window not controlled by AirNav.

 

 
 

Would you like to see your business listed on this page?

 If your business provides an interesting product or service to pilots, flight crews, aircraft, or users of the Kizer Field Airport, you should consider listing it here.  To start the listing process, click on the button below
 
Add a business
 

Other Pages about Kizer Field Airport

Update a link
 
Copyright © AirNav, LLC. All rights reserved. Privacy Policy  Contact